sensor_id;sensor_type;location;lat;lon;timestamp;temperature;humidity
20773;DHT22;10546;50.674;4.616;2023-11-19T08:40:37;13.30;99.90
20773;DHT22;10546;50.674;4.616;2023-11-19T08:43:07;13.40;99.90
20773;DHT22;10546;50.674;4.616;2023-11-19T08:45:36;13.50;99.90
20773;DHT22;10546;50.674;4.616;2023-11-19T08:48:01;13.60;99.90
20773;DHT22;10546;50.674;4.616;2023-11-19T08:50:27;13.80;99.90
20773;DHT22;10546;50.674;4.616;2023-11-19T08:52:53;14.10;99.90
20773;DHT22;10546;50.674;4.616;2023-11-19T08:55:18;14.20;99.90
20773;DHT22;10546;50.674;4.616;2023-11-19T08:57:45;14.10;99.90
20773;DHT22;10546;50.674;4.616;2023-11-19T09:00:11;14.10;99.90
20773;DHT22;10546;50.674;4.616;2023-11-19T09:03:00;14.10;99.90
20773;DHT22;10546;50.674;4.616;2023-11-19T09:06:00;14.20;99.90
20773;DHT22;10546;50.674;4.616;2023-11-19T09:08:36;14.20;99.90
20773;DHT22;10546;50.674;4.616;2023-11-19T09:11:19;13.90;99.90
20773;DHT22;10546;50.674;4.616;2023-11-19T09:14:01;13.70;99.90
20773;DHT22;10546;50.674;4.616;2023-11-19T09:17:28;13.40;99.90
20773;DHT22;10546;50.674;4.616;2023-11-19T09:20:53;13.10;99.90
20773;DHT22;10546;50.674;4.616;2023-11-19T09:23:31;12.90;99.90
20773;DHT22;10546;50.674;4.616;2023-11-19T09:26:03;12.70;99.90
20773;DHT22;10546;50.674;4.616;2023-11-19T09:28:29;12.70;99.90
20773;DHT22;10546;50.674;4.616;2023-11-19T09:30:54;12.70;99.90
20773;DHT22;10546;50.674;4.616;2023-11-19T09:33:20;12.60;99.90
20773;DHT22;10546;50.674;4.616;2023-11-19T09:35:46;12.50;99.90
20773;DHT22;10546;50.674;4.616;2023-11-19T09:38:12;12.80;99.90
20773;DHT22;10546;50.674;4.616;2023-11-19T09:40:39;13.40;99.90
20773;DHT22;10546;50.674;4.616;2023-11-19T09:43:08;13.80;99.90
20773;DHT22;10546;50.674;4.616;2023-11-19T09:45:49;13.50;99.90
20773;DHT22;10546;50.674;4.616;2023-11-19T09:48:18;13.10;99.90
20773;DHT22;10546;50.674;4.616;2023-11-19T09:50:51;12.90;99.90
20773;DHT22;10546;50.674;4.616;2023-11-19T09:53:17;12.70;99.90
20773;DHT22;10546;50.674;4.616;2023-11-19T09:55:45;12.50;99.90
20773;DHT22;10546;50.674;4.616;2023-11-19T09:58:35;12.30;99.90
20773;DHT22;10546;50.674;4.616;2023-11-19T10:01:28;12.30;99.90
20773;DHT22;10546;50.674;4.616;2023-11-19T10:04:10;12.20;99.90
20773;DHT22;10546;50.674;4.616;2023-11-19T10:06:46;12.20;99.90
20773;DHT22;10546;50.674;4.616;2023-11-19T10:09:23;12.60;99.90
20773;DHT22;10546;50.674;4.616;2023-11-19T10:11:51;13.30;99.90
20773;DHT22;10546;50.674;4.616;2023-11-19T10:14:22;13.90;99.90
20773;DHT22;10546;50.674;4.616;2023-11-19T10:17:07;14.20;99.90
20773;DHT22;10546;50.674;4.616;2023-11-19T10:19:34;14.30;99.90
20773;DHT22;10546;50.674;4.616;2023-11-19T10:22:04;14.30;99.90
20773;DHT22;10546;50.674;4.616;2023-11-19T10:24:52;14.20;99.90
20773;DHT22;10546;50.674;4.616;2023-11-19T10:27:24;14.30;99.90
20773;DHT22;10546;50.674;4.616;2023-11-19T10:29:50;14.40;99.90
20773;DHT22;10546;50.674;4.616;2023-11-19T10:32:20;14.60;99.90
20773;DHT22;10546;50.674;4.616;2023-11-19T10:35:04;14.70;99.90
20773;DHT22;10546;50.674;4.616;2023-11-19T10:37:53;14.80;99.90
20773;DHT22;10546;50.674;4.616;2023-11-19T10:40:37;14.70;99.90
20773;DHT22;10546;50.674;4.616;2023-11-19T10:43:10;14.60;99.90
20773;DHT22;10546;50.674;4.616;2023-11-19T10:45:37;14.40;99.90
20773;DHT22;10546;50.674;4.616;2023-11-19T10:48:20;14.20;99.90
20773;DHT22;10546;50.674;4.616;2023-11-19T10:50:53;14.30;99.90
20773;DHT22;10546;50.674;4.616;2023-11-19T10:53:21;14.50;99.90
20773;DHT22;10546;50.674;4.616;2023-11-19T10:55:55;14.90;99.90
20773;DHT22;10546;50.674;4.616;2023-11-19T10:58:36;15.40;99.90
20773;DHT22;10546;50.674;4.616;2023-11-19T11:01:38;15.80;99.90
20773;DHT22;10546;50.674;4.616;2023-11-19T11:04:14;16.30;99.90
20773;DHT22;10546;50.674;4.616;2023-11-19T11:07:14;16.40;99.90
20773;DHT22;10546;50.674;4.616;2023-11-19T11:09:44;16.80;99.90
20773;DHT22;10546;50.674;4.616;2023-11-19T11:12:20;16.90;99.90
20773;DHT22;10546;50.674;4.616;2023-11-19T11:14:51;16.50;99.90
20773;DHT22;10546;50.674;4.616;2023-11-19T11:18:00;16.00;99.90
20773;DHT22;10546;50.674;4.616;2023-11-19T11:20:30;15.50;99.90
20773;DHT22;10546;50.674;4.616;2023-11-19T11:27:00;14.90;99.90
20773;DHT22;10546;50.674;4.616;2023-11-19T11:38:06;13.60;99.90
20773;DHT22;10546;50.674;4.616;2023-11-19T11:40:33;13.80;99.90
20773;DHT22;10546;50.674;4.616;2023-11-19T11:43:01;14.30;99.90
20773;DHT22;10546;50.674;4.616;2023-11-19T11:45:38;14.50;99.90
20773;DHT22;10546;50.674;4.616;2023-11-19T11:48:11;14.10;99.90
20773;DHT22;10546;50.674;4.616;2023-11-19T11:50:48;13.60;99.90
20773;DHT22;10546;50.674;4.616;2023-11-19T11:53:17;13.60;99.90
20773;DHT22;10546;50.674;4.616;2023-11-19T11:58:37;14.00;99.90
20773;DHT22;10546;50.674;4.616;2023-11-19T12:01:06;14.30;99.90
20773;DHT22;10546;50.674;4.616;2023-11-19T12:03:33;14.10;99.90
20773;DHT22;10546;50.674;4.616;2023-11-19T12:05:59;14.30;99.90
20773;DHT22;10546;50.674;4.616;2023-11-19T12:08:29;14.30;99.90
20773;DHT22;10546;50.674;4.616;2023-11-19T12:10:57;14.50;99.90
20773;DHT22;10546;50.674;4.616;2023-11-19T12:14:03;14.50;99.90
20773;DHT22;10546;50.674;4.616;2023-11-19T12:16:32;14.30;99.90
20773;DHT22;10546;50.674;4.616;2023-11-19T12:19:08;14.30;99.90
20773;DHT22;10546;50.674;4.616;2023-11-19T12:21:34;14.30;99.90
20773;DHT22;10546;50.674;4.616;2023-11-19T12:24:09;14.20;99.90
20773;DHT22;10546;50.674;4.616;2023-11-19T12:26:40;14.00;99.90
20773;DHT22;10546;50.674;4.616;2023-11-19T12:29:09;14.00;99.90
20773;DHT22;10546;50.674;4.616;2023-11-19T12:31:36;14.10;99.90
20773;DHT22;10546;50.674;4.616;2023-11-19T12:34:06;14.10;99.90
20773;DHT22;10546;50.674;4.616;2023-11-19T12:36:34;13.80;99.90
20773;DHT22;10546;50.674;4.616;2023-11-19T12:39:08;13.50;99.90
20773;DHT22;10546;50.674;4.616;2023-11-19T12:41:51;13.50;99.90
20773;DHT22;10546;50.674;4.616;2023-11-19T12:44:16;13.30;99.90
20773;DHT22;10546;50.674;4.616;2023-11-19T12:46:42;13.30;99.90
20773;DHT22;10546;50.674;4.616;2023-11-19T12:49:11;13.20;99.90
20773;DHT22;10546;50.674;4.616;2023-11-19T12:51:36;13.20;99.90
20773;DHT22;10546;50.674;4.616;2023-11-19T12:54:03;13.30;99.90
20773;DHT22;10546;50.674;4.616;2023-11-19T12:56:30;13.40;99.90
20773;DHT22;10546;50.674;4.616;2023-11-19T12:59:01;13.30;99.90
20773;DHT22;10546;50.674;4.616;2023-11-19T13:01:36;13.30;99.90
20773;DHT22;10546;50.674;4.616;2023-11-19T13:04:16;13.20;99.90
20773;DHT22;10546;50.674;4.616;2023-11-19T13:06:48;13.30;99.90
20773;DHT22;10546;50.674;4.616;2023-11-19T13:09:26;13.50;99.90
20773;DHT22;10546;50.674;4.616;2023-11-19T13:11:53;13.50;99.90
20773;DHT22;10546;50.674;4.616;2023-11-19T13:14:19;13.50;99.90
20773;DHT22;10546;50.674;4.616;2023-11-19T13:16:46;13.40;99.90
20773;DHT22;10546;50.674;4.616;2023-11-19T13:19:13;13.40;99.90
20773;DHT22;10546;50.674;4.616;2023-11-19T13:21:39;13.30;99.90
20773;DHT22;10546;50.674;4.616;2023-11-19T13:24:08;13.30;99.90
20773;DHT22;10546;50.674;4.616;2023-11-19T13:26:34;13.10;99.90
20773;DHT22;10546;50.674;4.616;2023-11-19T13:29:01;13.10;99.90
20773;DHT22;10546;50.674;4.616;2023-11-19T13:31:27;13.10;99.90
20773;DHT22;10546;50.674;4.616;2023-11-19T13:33:53;13.00;99.90
20773;DHT22;10546;50.674;4.616;2023-11-19T13:36:18;13.00;99.90
20773;DHT22;10546;50.674;4.616;2023-11-19T13:38:45;13.10;99.90
20773;DHT22;10546;50.674;4.616;2023-11-19T13:41:10;13.10;99.90
20773;DHT22;10546;50.674;4.616;2023-11-19T13:43:37;13.00;99.90
20773;DHT22;10546;50.674;4.616;2023-11-19T13:46:03;12.90;99.90
20773;DHT22;10546;50.674;4.616;2023-11-19T13:48:30;12.90;99.90
20773;DHT22;10546;50.674;4.616;2023-11-19T13:50:56;12.90;99.90
20773;DHT22;10546;50.674;4.616;2023-11-19T13:53:22;12.80;99.90
20773;DHT22;10546;50.674;4.616;2023-11-19T13:55:49;12.90;99.90
20773;DHT22;10546;50.674;4.616;2023-11-19T13:58:15;13.00;99.90
20773;DHT22;10546;50.674;4.616;2023-11-19T14:00:41;13.00;99.90
20773;DHT22;10546;50.674;4.616;2023-11-19T14:03:09;12.90;99.90
20773;DHT22;10546;50.674;4.616;2023-11-19T14:05:36;12.90;99.90
20773;DHT22;10546;50.674;4.616;2023-11-19T14:08:02;12.90;99.90
20773;DHT22;10546;50.674;4.616;2023-11-19T14:10:28;12.90;99.90
20773;DHT22;10546;50.674;4.616;2023-11-19T14:12:54;12.80;99.90
20773;DHT22;10546;50.674;4.616;2023-11-19T14:15:20;12.90;99.90
20773;DHT22;10546;50.674;4.616;2023-11-19T14:17:45;13.00;99.90
20773;DHT22;10546;50.674;4.616;2023-11-19T14:20:11;13.00;99.90
20773;DHT22;10546;50.674;4.616;2023-11-19T14:22:41;13.00;99.90
20773;DHT22;10546;50.674;4.616;2023-11-19T14:25:11;13.00;99.90
20773;DHT22;10546;50.674;4.616;2023-11-19T14:27:41;13.00;99.90
20773;DHT22;10546;50.674;4.616;2023-11-19T14:30:09;13.00;99.90
20773;DHT22;10546;50.674;4.616;2023-11-19T14:32:39;13.00;99.90
20773;DHT22;10546;50.674;4.616;2023-11-19T14:35:05;13.00;99.90
20773;DHT22;10546;50.674;4.616;2023-11-19T14:37:31;13.00;99.90
20773;DHT22;10546;50.674;4.616;2023-11-19T14:39:58;13.00;99.90
20773;DHT22;10546;50.674;4.616;2023-11-19T14:42:24;13.00;99.90
20773;DHT22;10546;50.674;4.616;2023-11-19T14:44:53;12.90;99.90
20773;DHT22;10546;50.674;4.616;2023-11-19T14:47:19;13.00;99.90
20773;DHT22;10546;50.674;4.616;2023-11-19T14:49:46;13.00;99.90
20773;DHT22;10546;50.674;4.616;2023-11-19T14:52:13;13.00;99.90
20773;DHT22;10546;50.674;4.616;2023-11-19T14:54:41;12.90;99.90
20773;DHT22;10546;50.674;4.616;2023-11-19T14:57:07;12.90;99.90
20773;DHT22;10546;50.674;4.616;2023-11-19T15:00:01;12.80;99.90
20773;DHT22;10546;50.674;4.616;2023-11-19T15:02:32;12.90;99.90
20773;DHT22;10546;50.674;4.616;2023-11-19T15:07:56;12.80;99.90
20773;DHT22;10546;50.674;4.616;2023-11-19T15:10:28;12.80;99.90
20773;DHT22;10546;50.674;4.616;2023-11-19T15:12:55;12.80;99.90
20773;DHT22;10546;50.674;4.616;2023-11-19T15:15:41;12.90;99.90
20773;DHT22;10546;50.674;4.616;2023-11-19T15:18:26;12.90;99.90
20773;DHT22;10546;50.674;4.616;2023-11-19T15:20:57;12.80;99.90
20773;DHT22;10546;50.674;4.616;2023-11-19T15:23:52;12.70;99.90
20773;DHT22;10546;50.674;4.616;2023-11-19T15:26:39;12.60;99.90
20773;DHT22;10546;50.674;4.616;2023-11-19T15:29:05;12.60;99.90
20773;DHT22;10546;50.674;4.616;2023-11-19T15:31:32;12.50;99.90
20773;DHT22;10546;50.674;4.616;2023-11-19T15:33:58;12.40;99.90
20773;DHT22;10546;50.674;4.616;2023-11-19T15:36:24;12.50;99.90
20773;DHT22;10546;50.674;4.616;2023-11-19T15:39:12;12.60;99.90
20773;DHT22;10546;50.674;4.616;2023-11-19T15:41:53;12.60;99.90
20773;DHT22;10546;50.674;4.616;2023-11-19T15:44:21;12.70;99.90
20773;DHT22;10546;50.674;4.616;2023-11-19T15:46:49;12.70;99.90
20773;DHT22;10546;50.674;4.616;2023-11-19T15:49:17;12.70;99.90
20773;DHT22;10546;50.674;4.616;2023-11-19T15:51:43;12.60;99.90
20773;DHT22;10546;50.674;4.616;2023-11-19T15:54:15;12.70;99.90
20773;DHT22;10546;50.674;4.616;2023-11-19T15:57:01;12.60;99.90
20773;DHT22;10546;50.674;4.616;2023-11-19T15:59:49;12.70;99.90
20773;DHT22;10546;50.674;4.616;2023-11-19T16:02:46;12.50;99.90
20773;DHT22;10546;50.674;4.616;2023-11-19T16:05:33;12.50;99.90
20773;DHT22;10546;50.674;4.616;2023-11-19T16:08:41;12.60;99.90
20773;DHT22;10546;50.674;4.616;2023-11-19T16:11:29;12.60;99.90
20773;DHT22;10546;50.674;4.616;2023-11-19T16:14:09;12.60;99.90
20773;DHT22;10546;50.674;4.616;2023-11-19T16:17:01;12.60;99.90
20773;DHT22;10546;50.674;4.616;2023-11-19T16:19:30;12.70;99.90
20773;DHT22;10546;50.674;4.616;2023-11-19T16:22:11;12.50;99.90
20773;DHT22;10546;50.674;4.616;2023-11-19T16:24:38;12.50;99.90
20773;DHT22;10546;50.674;4.616;2023-11-19T16:27:04;12.50;99.90
20773;DHT22;10546;50.674;4.616;2023-11-19T16:29:30;12.40;99.90
20773;DHT22;10546;50.674;4.616;2023-11-19T16:31:57;12.20;99.90
20773;DHT22;10546;50.674;4.616;2023-11-19T16:34:26;12.10;99.90
20773;DHT22;10546;50.674;4.616;2023-11-19T16:36:58;11.90;99.90
20773;DHT22;10546;50.674;4.616;2023-11-19T16:39:32;12.00;99.90
20773;DHT22;10546;50.674;4.616;2023-11-19T16:42:01;12.00;99.90
20773;DHT22;10546;50.674;4.616;2023-11-19T16:44:28;12.00;99.90
20773;DHT22;10546;50.674;4.616;2023-11-19T16:46:55;11.90;99.90
20773;DHT22;10546;50.674;4.616;2023-11-19T16:49:21;12.00;99.90
20773;DHT22;10546;50.674;4.616;2023-11-19T16:51:51;11.90;99.90
20773;DHT22;10546;50.674;4.616;2023-11-19T16:54:19;11.90;99.90
20773;DHT22;10546;50.674;4.616;2023-11-19T16:56:50;11.90;99.90
20773;DHT22;10546;50.674;4.616;2023-11-19T16:59:26;11.60;99.90
20773;DHT22;10546;50.674;4.616;2023-11-19T17:01:52;11.60;99.90
20773;DHT22;10546;50.674;4.616;2023-11-19T17:04:18;11.70;99.90
20773;DHT22;10546;50.674;4.616;2023-11-19T17:06:49;11.80;99.90
20773;DHT22;10546;50.674;4.616;2023-11-19T17:09:19;11.80;99.90
20773;DHT22;10546;50.674;4.616;2023-11-19T17:11:46;11.80;99.90
20773;DHT22;10546;50.674;4.616;2023-11-19T17:14:21;11.80;99.90
20773;DHT22;10546;50.674;4.616;2023-11-19T17:16:50;11.70;99.90
20773;DHT22;10546;50.674;4.616;2023-11-19T17:19:16;11.70;99.90
20773;DHT22;10546;50.674;4.616;2023-11-19T17:22:15;11.70;99.90
20773;DHT22;10546;50.674;4.616;2023-11-19T17:24:46;11.50;99.90
20773;DHT22;10546;50.674;4.616;2023-11-19T17:27:13;11.40;99.90
20773;DHT22;10546;50.674;4.616;2023-11-19T17:29:40;11.50;99.90
20773;DHT22;10546;50.674;4.616;2023-11-19T17:32:30;11.50;99.90
20773;DHT22;10546;50.674;4.616;2023-11-19T17:35:03;11.40;99.90
20773;DHT22;10546;50.674;4.616;2023-11-19T17:37:32;11.40;99.90
20773;DHT22;10546;50.674;4.616;2023-11-19T17:40:02;11.40;99.90
20773;DHT22;10546;50.674;4.616;2023-11-19T17:42:29;11.50;99.90
20773;DHT22;10546;50.674;4.616;2023-11-19T17:44:55;11.40;99.90
20773;DHT22;10546;50.674;4.616;2023-11-19T17:47:28;11.30;99.90
20773;DHT22;10546;50.674;4.616;2023-11-19T17:50:01;11.20;99.90
20773;DHT22;10546;50.674;4.616;2023-11-19T17:52:31;11.30;99.90
20773;DHT22;10546;50.674;4.616;2023-11-19T17:55:20;11.40;99.90
20773;DHT22;10546;50.674;4.616;2023-11-19T17:57:51;11.30;99.90
20773;DHT22;10546;50.674;4.616;2023-11-19T18:00:21;11.30;99.90
20773;DHT22;10546;50.674;4.616;2023-11-19T18:02:48;11.20;99.90
20773;DHT22;10546;50.674;4.616;2023-11-19T18:05:23;11.20;99.90
20773;DHT22;10546;50.674;4.616;2023-11-19T18:08:14;11.10;99.90
20773;DHT22;10546;50.674;4.616;2023-11-19T18:10:45;11.10;99.90
20773;DHT22;10546;50.674;4.616;2023-11-19T18:13:12;11.00;99.90
20773;DHT22;10546;50.674;4.616;2023-11-19T18:15:42;11.10;99.90
20773;DHT22;10546;50.674;4.616;2023-11-19T18:18:36;11.10;99.90
20773;DHT22;10546;50.674;4.616;2023-11-19T18:21:32;11.20;99.90
20773;DHT22;10546;50.674;4.616;2023-11-19T18:24:37;11.00;99.90
20773;DHT22;10546;50.674;4.616;2023-11-19T18:27:04;11.00;99.90
20773;DHT22;10546;50.674;4.616;2023-11-19T18:29:30;10.90;99.90
20773;DHT22;10546;50.674;4.616;2023-11-19T18:31:57;11.10;99.90
20773;DHT22;10546;50.674;4.616;2023-11-19T18:34:34;11.00;99.90
20773;DHT22;10546;50.674;4.616;2023-11-19T18:37:06;11.00;99.90
20773;DHT22;10546;50.674;4.616;2023-11-19T18:39:32;11.00;99.90
20773;DHT22;10546;50.674;4.616;2023-11-19T18:42:03;11.00;99.90
20773;DHT22;10546;50.674;4.616;2023-11-19T18:44:28;11.00;99.90
20773;DHT22;10546;50.674;4.616;2023-11-19T18:47:14;11.10;99.90
20773;DHT22;10546;50.674;4.616;2023-11-19T18:49:41;11.10;99.90
20773;DHT22;10546;50.674;4.616;2023-11-19T18:52:07;11.10;99.90
20773;DHT22;10546;50.674;4.616;2023-11-19T18:54:32;11.10;99.90
20773;DHT22;10546;50.674;4.616;2023-11-19T18:57:18;11.00;99.90
20773;DHT22;10546;50.674;4.616;2023-11-19T18:59:51;11.00;99.90
20773;DHT22;10546;50.674;4.616;2023-11-19T19:02:31;11.00;99.90
20773;DHT22;10546;50.674;4.616;2023-11-19T19:04:57;10.90;99.90
20773;DHT22;10546;50.674;4.616;2023-11-19T19:07:28;11.00;99.90
20773;DHT22;10546;50.674;4.616;2023-11-19T19:10:01;11.00;99.90
20773;DHT22;10546;50.674;4.616;2023-11-19T19:12:47;11.10;99.90
20773;DHT22;10546;50.674;4.616;2023-11-19T19:15:18;11.10;99.90
20773;DHT22;10546;50.674;4.616;2023-11-19T19:17:44;11.20;99.90
20773;DHT22;10546;50.674;4.616;2023-11-19T19:20:09;11.20;99.90
20773;DHT22;10546;50.674;4.616;2023-11-19T19:22:35;11.10;99.90
20773;DHT22;10546;50.674;4.616;2023-11-19T19:25:01;11.10;99.90
20773;DHT22;10546;50.674;4.616;2023-11-19T19:27:27;11.10;99.90
20773;DHT22;10546;50.674;4.616;2023-11-19T19:29:53;11.10;99.90
20773;DHT22;10546;50.674;4.616;2023-11-19T19:32:18;11.10;99.90
20773;DHT22;10546;50.674;4.616;2023-11-19T19:34:44;11.10;99.90
20773;DHT22;10546;50.674;4.616;2023-11-19T19:37:10;10.90;99.90
20773;DHT22;10546;50.674;4.616;2023-11-19T19:39:36;10.90;99.90
20773;DHT22;10546;50.674;4.616;2023-11-19T19:42:02;11.10;99.90
20773;DHT22;10546;50.674;4.616;2023-11-19T19:44:29;11.10;99.90
20773;DHT22;10546;50.674;4.616;2023-11-19T19:46:55;11.00;99.90
20773;DHT22;10546;50.674;4.616;2023-11-19T19:49:22;11.00;99.90
20773;DHT22;10546;50.674;4.616;2023-11-19T19:51:48;10.90;99.90
20773;DHT22;10546;50.674;4.616;2023-11-19T19:54:14;10.80;99.90
20773;DHT22;10546;50.674;4.616;2023-11-19T19:56:39;10.80;99.90
20773;DHT22;10546;50.674;4.616;2023-11-19T19:59:05;10.80;99.90
20773;DHT22;10546;50.674;4.616;2023-11-19T20:01:31;10.90;99.90
20773;DHT22;10546;50.674;4.616;2023-11-19T20:03:58;11.00;99.90
20773;DHT22;10546;50.674;4.616;2023-11-19T20:06:24;10.90;99.90
20773;DHT22;10546;50.674;4.616;2023-11-19T20:08:50;10.80;99.90
20773;DHT22;10546;50.674;4.616;2023-11-19T20:11:16;10.90;99.90
20773;DHT22;10546;50.674;4.616;2023-11-19T20:13:43;10.90;99.90
20773;DHT22;10546;50.674;4.616;2023-11-19T20:16:09;10.90;99.90
20773;DHT22;10546;50.674;4.616;2023-11-19T20:18:36;11.00;99.90
20773;DHT22;10546;50.674;4.616;2023-11-19T20:21:02;11.10;99.90
20773;DHT22;10546;50.674;4.616;2023-11-19T20:23:34;11.10;99.90
20773;DHT22;10546;50.674;4.616;2023-11-19T20:26:01;11.10;99.90
20773;DHT22;10546;50.674;4.616;2023-11-19T20:28:26;11.10;99.90
20773;DHT22;10546;50.674;4.616;2023-11-19T20:30:52;11.00;99.90
20773;DHT22;10546;50.674;4.616;2023-11-19T20:33:18;11.00;99.90
20773;DHT22;10546;50.674;4.616;2023-11-19T20:35:45;10.90;99.90
20773;DHT22;10546;50.674;4.616;2023-11-19T20:38:12;10.90;99.90
20773;DHT22;10546;50.674;4.616;2023-11-19T20:40:38;10.90;99.90
20773;DHT22;10546;50.674;4.616;2023-11-19T20:43:04;11.00;99.90
20773;DHT22;10546;50.674;4.616;2023-11-19T20:45:30;10.90;99.90
20773;DHT22;10546;50.674;4.616;2023-11-19T20:47:56;10.90;99.90
20773;DHT22;10546;50.674;4.616;2023-11-19T20:50:23;10.90;99.90
20773;DHT22;10546;50.674;4.616;2023-11-19T20:52:51;10.90;99.90
20773;DHT22;10546;50.674;4.616;2023-11-19T20:55:19;10.90;99.90
20773;DHT22;10546;50.674;4.616;2023-11-19T20:57:45;11.00;99.90
20773;DHT22;10546;50.674;4.616;2023-11-19T21:00:13;10.90;99.90
20773;DHT22;10546;50.674;4.616;2023-11-19T21:02:39;11.00;99.90
20773;DHT22;10546;50.674;4.616;2023-11-19T21:05:06;10.80;99.90
20773;DHT22;10546;50.674;4.616;2023-11-19T21:07:36;10.80;99.90
20773;DHT22;10546;50.674;4.616;2023-11-19T21:10:02;10.80;99.90
20773;DHT22;10546;50.674;4.616;2023-11-19T21:12:30;10.80;99.90
20773;DHT22;10546;50.674;4.616;2023-11-19T21:14:55;10.80;99.90
20773;DHT22;10546;50.674;4.616;2023-11-19T21:17:21;10.90;99.90
20773;DHT22;10546;50.674;4.616;2023-11-19T21:19:48;10.90;99.90
20773;DHT22;10546;50.674;4.616;2023-11-19T21:22:14;10.90;99.90
20773;DHT22;10546;50.674;4.616;2023-11-19T21:24:40;10.90;99.90
20773;DHT22;10546;50.674;4.616;2023-11-19T21:27:07;10.90;99.90
20773;DHT22;10546;50.674;4.616;2023-11-19T21:29:33;10.90;99.90
20773;DHT22;10546;50.674;4.616;2023-11-19T21:31:59;10.90;99.90
20773;DHT22;10546;50.674;4.616;2023-11-19T21:34:25;10.90;99.90
20773;DHT22;10546;50.674;4.616;2023-11-19T21:36:52;11.00;99.90
20773;DHT22;10546;50.674;4.616;2023-11-19T21:39:17;11.00;99.90
20773;DHT22;10546;50.674;4.616;2023-11-19T21:41:44;11.00;99.90
20773;DHT22;10546;50.674;4.616;2023-11-19T21:44:10;11.00;99.90
20773;DHT22;10546;50.674;4.616;2023-11-19T21:46:36;11.10;99.90
20773;DHT22;10546;50.674;4.616;2023-11-19T21:49:02;11.20;99.90
20773;DHT22;10546;50.674;4.616;2023-11-19T21:51:28;11.20;99.90
20773;DHT22;10546;50.674;4.616;2023-11-19T21:53:53;11.10;99.90
20773;DHT22;10546;50.674;4.616;2023-11-19T21:56:19;11.20;99.90
20773;DHT22;10546;50.674;4.616;2023-11-19T21:58:45;11.20;99.90
20773;DHT22;10546;50.674;4.616;2023-11-19T22:01:39;11.20;99.90
20773;DHT22;10546;50.674;4.616;2023-11-19T22:04:12;11.20;99.90
20773;DHT22;10546;50.674;4.616;2023-11-19T22:06:39;11.20;99.90
20773;DHT22;10546;50.674;4.616;2023-11-19T22:09:07;11.30;99.90
20773;DHT22;10546;50.674;4.616;2023-11-19T22:11:35;11.30;99.90
